Time;durP1;ratioP1;P1;durP2;ratioP2;P2;SDS_P1;SDS_P2;PMS_P1;PMS_P2;Temp;Humidity;BMP_temperature;BMP_pressure;BME280_temperature;BME280_humidity;BME280_pressure;Samples;Min_cycle;Max_cycle;Signal;HPM_P1;HPM_P2
2021/08/18 00:01:07;;;;;;;31.57;13.30;;;;;;;20.42;85.96;100699.14;1793368;80;21143;-61
2021/08/18 00:03:36;;;;;;;27.42;13.93;;;;;;;20.40;86.04;100697.08;1793336;80;21177;-61
2021/08/18 00:06:05;;;;;;;98.82;61.95;;;;;;;20.40;85.94;100694.90;1793333;80;21049;-61
2021/08/18 00:08:33;;;;;;;74.82;47.15;;;;;;;20.40;85.99;100698.41;1793290;80;21155;-61
2021/08/18 00:11:02;;;;;;;55.85;32.05;;;;;;;20.41;85.88;100701.44;1793327;80;21124;-61
2021/08/18 00:13:31;;;;;;;64.20;36.58;;;;;;;20.41;85.77;100697.42;1793389;80;21086;-61
2021/08/18 00:16:00;;;;;;;65.40;34.80;;;;;;;20.41;85.68;100698.77;1793324;80;21121;-61
2021/08/18 00:18:28;;;;;;;47.43;24.05;;;;;;;20.38;85.92;100697.70;1793451;80;21523;-61
2021/08/18 00:20:57;;;;;;;33.33;16.48;;;;;;;20.36;86.19;100694.30;1793342;80;21253;-61
2021/08/18 00:23:26;;;;;;;33.58;16.67;;;;;;;20.35;86.42;100694.42;1793291;80;21105;-61
2021/08/18 00:25:56;;;;;;;29.45;14.05;;;;;;;20.33;86.41;100691.86;1793385;80;21066;-61
2021/08/18 00:28:24;;;;;;;28.80;15.28;;;;;;;20.32;86.51;100688.81;1793526;80;21594;-61
2021/08/18 00:30:53;;;;;;;34.75;16.48;;;;;;;20.32;86.35;100691.48;1793294;80;21098;-61
2021/08/18 00:33:22;;;;;;;48.60;26.05;;;;;;;20.32;86.13;100692.83;1793364;80;21088;-61
2021/08/18 00:35:50;;;;;;;54.25;29.57;;;;;;;20.31;86.00;100689.80;1793232;80;21537;-61
2021/08/18 00:38:19;;;;;;;56.88;29.00;;;;;;;20.31;85.93;100693.81;1793318;80;21078;-61
2021/08/18 00:40:48;;;;;;;51.53;25.77;;;;;;;20.28;85.92;100692.72;1793260;80;21065;-61
2021/08/18 00:43:17;;;;;;;52.20;29.05;;;;;;;20.22;86.16;100695.39;1793245;80;21227;-61
2021/08/18 00:45:46;;;;;;;62.15;32.98;;;;;;;20.21;86.24;100692.84;1793494;80;21109;-61
2021/08/18 00:48:14;;;;;;;57.50;28.65;;;;;;;20.19;86.22;100696.97;1793265;80;21124;-61
2021/08/18 00:50:43;;;;;;;42.83;23.40;;;;;;;20.17;86.11;100703.42;1793262;80;21153;-61
2021/08/18 00:53:14;;;;;;;38.92;19.00;;;;;;;20.14;86.05;100700.98;1793352;80;21579;-61
2021/08/18 00:55:43;;;;;;;37.15;18.25;;;;;;;20.09;86.09;100693.35;1793293;80;21065;-61
2021/08/18 00:58:12;;;;;;;34.25;18.00;;;;;;;20.04;86.09;100703.05;1793479;80;21073;-60
2021/08/18 01:00:40;;;;;;;34.80;17.30;;;;;;;20.01;86.09;100698.44;1793325;80;21180;-61
2021/08/18 01:03:09;;;;;;;34.55;17.23;;;;;;;19.98;86.12;100702.72;1793191;80;21131;-61
2021/08/18 01:05:39;;;;;;;34.25;17.77;;;;;;;19.95;86.10;100704.28;1793317;80;21547;-61
2021/08/18 01:08:07;;;;;;;33.02;17.95;;;;;;;19.90;86.34;100701.99;1793375;80;21065;-61
2021/08/18 01:10:38;;;;;;;33.50;19.70;;;;;;;19.88;86.30;100703.91;1793279;80;21596;-61
2021/08/18 01:13:07;;;;;;;38.63;20.72;;;;;;;19.84;86.31;100707.80;1793289;80;21183;-61
2021/08/18 01:15:36;;;;;;;40.85;19.10;;;;;;;19.83;86.27;100706.11;1793187;80;21684;-61
2021/08/18 01:18:06;;;;;;;33.98;18.42;;;;;;;19.82;86.29;100709.25;1800515;80;21655;-61
2021/08/18 01:20:38;;;;;;;32.23;16.30;;;;;;;19.80;86.33;100707.68;1800885;80;21100;-61
2021/08/18 01:23:09;;;;;;;39.42;17.70;;;;;;;19.77;86.47;100705.23;1800867;80;21563;-60
2021/08/18 01:25:40;;;;;;;36.00;17.25;;;;;;;19.76;86.77;100714.23;1801039;80;21065;-60
2021/08/18 01:28:10;;;;;;;31.35;15.05;;;;;;;19.75;87.14;100704.52;1800736;80;21144;-61
2021/08/18 01:30:39;;;;;;;29.32;15.45;;;;;;;19.75;87.45;100712.52;1800823;80;21585;-61
2021/08/18 01:33:10;;;;;;;27.80;14.10;;;;;;;19.72;87.47;100713.59;1800878;80;21531;-61
2021/08/18 01:35:42;;;;;;;31.30;14.83;;;;;;;19.71;87.60;100714.55;1800133;79;21065;-61
2021/08/18 01:38:12;;;;;;;31.27;16.37;;;;;;;19.72;87.52;100713.59;1800962;79;21500;-61
2021/08/18 01:40:43;;;;;;;32.17;17.15;;;;;;;19.72;87.66;100714.09;1800843;80;21120;-61
2021/08/18 01:43:12;;;;;;;32.85;15.55;;;;;;;19.69;87.72;100719.16;1800961;80;21057;-61
2021/08/18 01:45:44;;;;;;;36.35;17.80;;;;;;;19.68;87.60;100716.14;1800926;80;21069;-61
2021/08/18 01:48:18;;;;;;;36.05;18.02;;;;;;;19.65;87.53;100725.72;1800973;80;21103;-61
2021/08/18 01:50:48;;;;;;;32.53;15.68;;;;;;;19.62;87.51;100715.27;1800870;80;21136;-61
2021/08/18 01:53:19;;;;;;;26.23;15.38;;;;;;;19.59;87.63;100717.70;1801049;80;21057;-61
2021/08/18 01:55:49;;;;;;;31.68;14.80;;;;;;;19.58;87.50;100713.31;1801165;80;21065;-61
2021/08/18 01:58:18;;;;;;;24.70;13.08;;;;;;;19.55;87.53;100714.91;1801088;80;21085;-61
2021/08/18 02:00:47;;;;;;;28.17;14.30;;;;;;;19.52;87.46;100720.48;1800934;80;21053;-61
2021/08/18 02:03:16;;;;;;;33.70;15.35;;;;;;;19.50;87.43;100717.08;1800937;80;21116;-62
2021/08/18 02:05:44;;;;;;;31.10;14.47;;;;;;;19.47;87.61;100713.30;1800956;80;21041;-61
2021/08/18 02:08:13;;;;;;;31.48;15.58;;;;;;;19.42;87.71;100715.00;1801080;80;21073;-61
2021/08/18 02:10:42;;;;;;;30.25;15.40;;;;;;;19.42;87.65;100715.46;1801028;80;21535;-61
2021/08/18 02:13:11;;;;;;;33.38;14.47;;;;;;;19.39;87.75;100719.72;1800988;80;21150;-61
2021/08/18 02:15:40;;;;;;;31.90;13.83;;;;;;;19.38;87.83;100718.01;1800946;80;21511;-61
2021/08/18 02:18:14;;;;;;;29.42;14.93;;;;;;;19.37;87.74;100717.66;1795665;79;21097;-61
2021/08/18 02:20:42;;;;;;;33.08;14.73;;;;;;;19.34;87.70;100716.55;1793012;80;21178;-61
2021/08/18 02:23:11;;;;;;;29.55;13.75;;;;;;;19.33;87.69;100722.84;1793396;80;21457;-61
2021/08/18 02:25:40;;;;;;;27.35;13.30;;;;;;;19.31;87.62;100718.11;1793396;80;21159;-61
2021/08/18 02:28:09;;;;;;;27.42;13.85;;;;;;;19.29;87.57;100719.55;1793428;80;21065;-61
2021/08/18 02:30:39;;;;;;;28.83;13.72;;;;;;;19.27;87.74;100721.03;1793255;80;21166;-61
2021/08/18 02:33:08;;;;;;;26.68;14.15;;;;;;;19.25;88.01;100718.94;1793355;80;21587;-61
2021/08/18 02:35:38;;;;;;;29.25;13.25;;;;;;;19.24;88.21;100718.58;1793451;80;21093;-61
2021/08/18 02:38:08;;;;;;;40.85;21.10;;;;;;;19.24;88.25;100722.59;1793318;80;21097;-61
2021/08/18 02:40:38;;;;;;;82.05;52.03;;;;;;;19.24;88.21;100717.74;1793352;80;21636;-61
2021/08/18 02:43:07;;;;;;;76.95;43.10;;;;;;;19.25;88.29;100710.92;1793370;80;21179;-61
2021/08/18 02:45:36;;;;;;;45.92;22.98;;;;;;;19.27;88.23;100717.02;1793375;80;21073;-61
2021/08/18 02:48:05;;;;;;;29.18;15.78;;;;;;;19.28;88.15;100721.37;1793368;80;21085;-61
2021/08/18 02:50:34;;;;;;;29.85;13.10;;;;;;;19.26;88.28;100720.65;1793344;80;21049;-61
2021/08/18 02:53:03;;;;;;;30.23;14.90;;;;;;;19.23;88.25;100715.53;1793463;80;21066;-61
2021/08/18 02:55:31;;;;;;;32.13;14.63;;;;;;;19.23;88.26;100724.03;1793412;80;21069;-61
2021/08/18 02:58:00;;;;;;;31.25;14.43;;;;;;;19.21;88.26;100724.64;1793319;80;21198;-61
2021/08/18 03:00:29;;;;;;;36.95;16.02;;;;;;;19.22;88.18;100721.02;1793474;80;21045;-61
2021/08/18 03:02:58;;;;;;;31.02;14.00;;;;;;;19.24;88.15;100718.58;1793407;80;21101;-61
2021/08/18 03:05:27;;;;;;;30.90;13.20;;;;;;;19.27;88.20;100714.36;1793358;80;21120;-61
2021/08/18 03:07:55;;;;;;;27.93;11.97;;;;;;;19.33;88.22;100716.17;1793473;80;21135;-61
2021/08/18 03:10:24;;;;;;;27.07;13.22;;;;;;;19.38;88.14;100710.84;1793328;80;21140;-61
2021/08/18 03:12:53;;;;;;;24.10;11.03;;;;;;;19.46;88.03;100711.12;1793396;80;21507;-61
2021/08/18 03:15:22;;;;;;;28.98;11.88;;;;;;;19.55;87.88;100713.58;1793342;80;21155;-61
2021/08/18 03:17:51;;;;;;;26.12;12.80;;;;;;;19.60;87.69;100715.37;1795222;80;21167;-61
2021/08/18 03:20:19;;;;;;;28.27;12.63;;;;;;;19.65;87.52;100717.71;1800914;80;21041;-61
2021/08/18 03:22:48;;;;;;;30.30;14.20;;;;;;;19.72;87.45;100721.61;1800947;80;21135;-61
2021/08/18 03:25:17;;;;;;;31.20;11.90;;;;;;;19.80;87.39;100718.36;1800923;80;21182;-61
2021/08/18 03:27:46;;;;;;;25.20;11.25;;;;;;;19.89;87.15;100724.32;1800963;80;21139;-61
2021/08/18 03:30:15;;;;;;;27.45;12.15;;;;;;;19.97;87.05;100720.55;1800954;80;21041;-61
2021/08/18 03:32:43;;;;;;;31.95;12.73;;;;;;;20.04;86.91;100717.75;1800949;80;21053;-61
2021/08/18 03:35:13;;;;;;;27.45;12.50;;;;;;;20.14;86.66;100715.69;1800780;80;21093;-59
2021/08/18 03:37:41;;;;;;;31.97;11.73;;;;;;;20.24;86.37;100719.34;1800942;80;21135;-61
2021/08/18 03:40:11;;;;;;;27.67;12.33;;;;;;;20.34;86.13;100720.28;1800934;80;21065;-61
2021/08/18 03:42:40;;;;;;;26.97;11.48;;;;;;;20.46;85.96;100714.95;1801011;80;21069;-61
2021/08/18 03:45:09;;;;;;;28.42;11.63;;;;;;;20.61;85.74;100716.39;1800966;80;21135;-61
2021/08/18 03:47:38;;;;;;;27.10;11.65;;;;;;;20.77;85.50;100717.33;1800912;80;21093;-61
2021/08/18 03:50:08;;;;;;;25.88;10.68;;;;;;;20.94;85.19;100711.42;1800940;80;21026;-61
2021/08/18 03:52:41;;;;;;;25.72;11.63;;;;;;;21.10;84.68;100713.67;1801042;80;21053;-61
2021/08/18 03:55:11;;;;;;;25.55;11.53;;;;;;;21.23;83.74;100707.27;1801057;80;21598;-60
2021/08/18 03:57:40;;;;;;;19.60;10.48;;;;;;;21.33;82.81;100706.86;1800954;80;21061;-60
2021/08/18 04:00:13;;;;;;;24.25;12.75;;;;;;;21.46;82.37;100706.20;1800847;80;21131;-63
2021/08/18 04:02:42;;;;;;;24.35;12.58;;;;;;;21.66;82.07;100710.34;1800546;80;21159;-61
2021/08/18 04:05:12;;;;;;;30.90;15.08;;;;;;;21.87;81.76;100705.78;1800897;80;21056;-60
2021/08/18 04:07:41;;;;;;;27.35;13.98;;;;;;;22.07;81.06;100710.73;1800933;80;21097;-61
2021/08/18 04:10:11;;;;;;;32.48;15.28;;;;;;;22.31;80.74;100706.91;1800903;80;21573;-61
2021/08/18 04:12:54;;;;;;;32.25;14.83;;;;;;;22.53;80.37;100707.17;1800809;80;21151;-61
2021/08/18 04:15:24;;;;;;;;;;;;;;;22.74;79.82;100699.86;1803587;80;21073;-60
2021/08/18 04:17:53;;;;;;;24.25;11.93;;;;;;;23.04;79.72;100698.56;1799937;79;20150;-60
2021/08/18 04:20:22;;;;;;;23.38;10.68;;;;;;;23.24;79.04;100697.55;1800856;79;21559;-61
2021/08/18 04:22:51;;;;;;;24.47;10.18;;;;;;;23.42;78.06;100699.49;1800924;80;21069;-61
2021/08/18 04:25:21;;;;;;;30.77;13.48;;;;;;;23.55;77.11;100698.68;1800993;80;21076;-61
2021/08/18 04:27:50;;;;;;;30.55;13.30;;;;;;;23.63;76.11;100697.98;1800912;80;21507;-61
2021/08/18 04:30:19;;;;;;;29.92;11.63;;;;;;;23.68;75.46;100691.17;1800929;80;21085;-61
2021/08/18 04:32:48;;;;;;;37.35;14.45;;;;;;;23.82;75.49;100685.83;1800870;80;21551;-60
2021/08/18 04:35:18;;;;;;;26.93;12.37;;;;;;;24.09;75.08;100690.90;1800916;80;21072;-61
2021/08/18 04:37:47;;;;;;;29.35;10.82;;;;;;;24.22;74.42;100695.94;1800801;80;21496;-61
2021/08/18 04:40:17;;;;;;;23.57;10.55;;;;;;;24.50;74.46;100695.91;1800904;80;21548;-61
2021/08/18 04:42:47;;;;;;;28.32;10.50;;;;;;;24.73;73.94;100690.95;1800931;80;21597;-61
2021/08/18 04:45:17;;;;;;;20.23;9.98;;;;;;;24.87;73.56;100693.62;1801024;80;21064;-61
2021/08/18 04:47:46;;;;;;;21.65;10.32;;;;;;;25.13;73.20;100690.47;1800883;79;21068;-61
2021/08/18 04:50:17;;;;;;;33.00;11.65;;;;;;;25.41;72.59;100685.81;1800741;80;21080;-61
2021/08/18 04:52:46;;;;;;;26.35;10.55;;;;;;;25.66;71.89;100685.16;1800971;80;21069;-61
2021/08/18 04:55:17;;;;;;;24.50;10.68;;;;;;;25.88;71.17;100679.72;1800869;80;21065;-61
2021/08/18 04:57:45;;;;;;;31.97;11.60;;;;;;;26.04;70.29;100681.14;1800983;80;21182;-61
2021/08/18 05:00:15;;;;;;;29.98;11.60;;;;;;;26.21;70.04;100682.07;1800881;80;21081;-61
2021/08/18 05:02:45;;;;;;;22.00;11.30;;;;;;;26.49;69.62;100681.30;1800900;80;21496;-61
2021/08/18 05:05:14;;;;;;;20.55;9.95;;;;;;;26.70;68.86;100678.66;1800890;80;21504;-61
2021/08/18 05:07:42;;;;;;;19.15;10.45;;;;;;;26.89;67.96;100681.06;1800945;80;21131;-61
2021/08/18 05:10:12;;;;;;;17.82;9.18;;;;;;;27.04;67.64;100677.66;1800902;80;21143;-61
2021/08/18 05:12:41;;;;;;;19.00;10.00;;;;;;;27.24;67.21;100674.97;1800848;80;21093;-61
2021/08/18 05:15:10;;;;;;;25.02;10.30;;;;;;;27.49;66.69;100672.25;1800816;80;21073;-61
2021/08/18 05:17:39;;;;;;;21.85;9.93;;;;;;;27.64;65.52;100673.22;1800921;80;21049;-61
2021/08/18 05:20:09;;;;;;;29.02;10.88;;;;;;;27.78;64.89;100674.86;1796648;78;21626;-60
2021/08/18 05:22:37;;;;;;;20.68;9.35;;;;;;;28.01;64.31;100675.83;1793469;80;21173;-61
2021/08/18 05:25:07;;;;;;;23.67;10.95;;;;;;;28.27;64.07;100676.05;1793456;80;21093;-61
2021/08/18 05:27:35;;;;;;;21.17;9.48;;;;;;;28.43;63.00;100678.67;1793368;80;21077;-62
2021/08/18 05:30:04;;;;;;;28.35;10.93;;;;;;;28.60;62.78;100669.12;1793462;80;21117;-61
2021/08/18 05:32:33;;;;;;;24.47;9.88;;;;;;;28.88;62.41;100675.70;1793401;80;21105;-61
2021/08/18 05:35:02;;;;;;;21.80;10.13;;;;;;;29.26;62.02;100671.66;1793458;80;21110;-61
2021/08/18 05:37:31;;;;;;;22.87;9.70;;;;;;;29.55;60.17;100668.66;1793418;80;21097;-61
2021/08/18 05:39:59;;;;;;;24.15;10.68;;;;;;;29.70;60.14;100670.55;1793464;80;21531;-61
2021/08/18 05:42:28;;;;;;;23.98;10.38;;;;;;;29.87;59.02;100669.34;1793338;80;21161;-61
2021/08/18 05:44:57;;;;;;;23.62;9.80;;;;;;;30.10;58.55;100669.23;1793432;80;21078;-61
2021/08/18 05:47:26;;;;;;;20.85;9.65;;;;;;;30.43;58.14;100664.71;1793417;80;21193;-61
2021/08/18 05:49:55;;;;;;;24.72;10.15;;;;;;;30.83;57.61;100664.29;1793551;80;21081;-61
2021/08/18 05:52:23;;;;;;;20.95;10.20;;;;;;;31.22;56.74;100669.77;1793376;80;21118;-61
2021/08/18 05:54:52;;;;;;;22.70;9.98;;;;;;;31.51;55.64;100663.31;1793312;80;21167;-61
2021/08/18 05:57:20;;;;;;;18.70;10.43;;;;;;;31.75;54.89;100667.44;1793525;80;21104;-61
2021/08/18 05:59:49;;;;;;;24.20;11.00;;;;;;;32.01;53.54;100668.61;1793400;80;21143;-61
2021/08/18 06:02:18;;;;;;;23.30;10.60;;;;;;;31.98;52.95;100673.09;1793410;80;21041;-61
2021/08/18 06:04:47;;;;;;;24.75;10.80;;;;;;;32.20;53.38;100667.86;1793448;80;21069;-61
2021/08/18 06:07:16;;;;;;;26.85;11.43;;;;;;;32.32;52.93;100667.59;1793359;80;21554;-63
2021/08/18 06:09:44;;;;;;;27.20;12.37;;;;;;;32.40;52.65;100665.73;1793414;80;21053;-61
2021/08/18 06:12:13;;;;;;;25.32;11.33;;;;;;;32.63;52.25;100668.13;1793451;80;21139;-61
2021/08/18 06:14:42;;;;;;;26.17;11.65;;;;;;;32.94;51.75;100662.05;1793440;80;21066;-61
2021/08/18 06:17:11;;;;;;;26.42;11.38;;;;;;;33.26;50.60;100656.85;1793389;80;21551;-61
2021/08/18 06:19:39;;;;;;;27.65;10.80;;;;;;;33.45;49.75;100649.14;1793310;80;21112;-63
2021/08/18 06:22:08;;;;;;;24.20;11.75;;;;;;;33.69;49.45;100648.17;1793386;80;21187;-61
2021/08/18 06:27:13;;;;;;;22.58;10.85;;;;;;;34.14;48.00;100648.22;1793401;80;21053;-61
2021/08/18 06:29:42;;;;;;;25.08;11.35;;;;;;;33.99;48.00;100639.44;1793417;80;21085;-61
2021/08/18 06:32:11;;;;;;;24.77;11.33;;;;;;;34.02;48.13;100645.84;1793388;80;21065;-62
2021/08/18 06:34:40;;;;;;;22.80;11.25;;;;;;;34.23;47.76;100636.01;1793318;80;21632;-61
2021/08/18 06:37:08;;;;;;;23.07;10.53;;;;;;;34.16;46.60;100636.54;1793421;80;21113;-61
2021/08/18 06:39:39;;;;;;;22.42;11.12;;;;;;;34.19;45.99;100633.91;1793410;80;21116;-61
2021/08/18 06:42:08;;;;;;;25.25;11.05;;;;;;;34.44;45.32;100629.89;1793419;80;21062;-61
2021/08/18 06:44:37;;;;;;;21.17;10.48;;;;;;;34.44;45.32;100629.89;1793406;80;21544;-61
2021/08/18 06:47:06;;;;;;;25.60;10.85;;;;;;;34.70;45.66;100630.80;1793348;80;21317;-61
2021/08/18 06:49:35;;;;;;;23.18;11.28;;;;;;;34.95;44.73;100628.91;1793406;80;21069;-61
2021/08/18 06:52:04;;;;;;;29.27;11.70;;;;;;;35.23;43.35;100634.47;1793398;80;21524;-61
2021/08/18 06:54:33;;;;;;;22.00;11.22;;;;;;;35.12;43.86;100634.64;1793365;80;21168;-61
2021/08/18 06:57:02;;;;;;;23.47;10.38;;;;;;;35.15;43.90;100633.34;1793394;80;21066;-61
2021/08/18 06:59:30;;;;;;;21.33;10.35;;;;;;;35.19;42.97;100630.48;1793309;80;21074;-61
2021/08/18 07:01:59;;;;;;;25.32;10.25;;;;;;;35.24;42.03;100629.82;1793389;80;21443;-61
2021/08/18 07:04:28;;;;;;;22.27;9.98;;;;;;;35.16;42.11;100630.92;1793407;80;21069;-61
2021/08/18 07:06:56;;;;;;;21.30;10.13;;;;;;;35.33;41.92;100623.81;1793416;80;21114;-61
2021/08/18 07:09:25;;;;;;;22.65;10.40;;;;;;;35.43;41.48;100621.09;1793414;80;21583;-61
2021/08/18 07:11:54;;;;;;;22.65;11.75;;;;;;;35.44;40.52;100624.14;1793288;80;21053;-61
2021/08/18 07:14:23;;;;;;;24.10;10.93;;;;;;;35.59;40.99;100616.92;1793543;80;21550;-61
2021/08/18 07:16:52;;;;;;;20.82;9.95;;;;;;;35.60;40.23;100613.09;1793459;80;21058;-61
2021/08/18 07:19:20;;;;;;;23.05;10.90;;;;;;;35.55;40.81;100606.95;1793402;80;21203;-60
2021/08/18 07:21:49;;;;;;;23.60;10.18;;;;;;;35.78;41.13;100609.55;1793419;80;21189;-61
2021/08/18 07:24:18;;;;;;;24.02;10.85;;;;;;;36.16;40.91;100608.42;1793339;80;21033;-62
2021/08/18 07:26:47;;;;;;;22.50;9.73;;;;;;;36.44;40.07;100609.19;1793436;80;21550;-61
2021/08/18 07:29:16;;;;;;;21.27;10.28;;;;;;;36.73;39.33;100603.37;1793483;80;21555;-61
2021/08/18 07:31:44;;;;;;;22.37;9.13;;;;;;;36.98;39.04;100607.28;1793380;80;21151;-61
2021/08/18 07:34:13;;;;;;;18.23;10.13;;;;;;;37.29;38.29;100598.38;1793351;80;21138;-61
2021/08/18 07:36:42;;;;;;;17.37;8.90;;;;;;;37.30;38.05;100602.81;1793354;80;21073;-61
2021/08/18 07:39:10;;;;;;;21.05;9.45;;;;;;;37.34;37.23;100598.50;1793263;80;21186;-61
2021/08/18 07:41:39;;;;;;;26.27;10.50;;;;;;;37.38;36.94;100593.36;1793434;80;21065;-61
2021/08/18 07:44:08;;;;;;;20.25;8.98;;;;;;;37.49;36.92;100592.50;1793419;80;21085;-61
2021/08/18 07:46:36;;;;;;;17.15;8.40;;;;;;;37.64;37.18;100592.84;1793390;80;21143;-61
2021/08/18 07:49:05;;;;;;;23.45;10.05;;;;;;;37.59;35.69;100589.13;1793374;80;21139;-61
2021/08/18 07:51:34;;;;;;;19.52;9.25;;;;;;;37.49;34.96;100585.63;1793275;80;21065;-61
2021/08/18 07:54:02;;;;;;;21.57;9.93;;;;;;;37.36;35.16;100579.87;1793501;80;21149;-61
2021/08/18 07:56:34;;;;;;;22.05;9.65;;;;;;;37.54;35.05;100572.56;1793363;80;21093;-61
2021/08/18 07:59:03;;;;;;;27.93;10.90;;;;;;;37.64;34.54;100572.79;1793497;80;21082;-61
2021/08/18 08:01:32;;;;;;;22.58;9.83;;;;;;;37.61;35.45;100573.23;1793501;80;21050;-61
2021/08/18 08:04:00;;;;;;;23.38;10.40;;;;;;;37.84;35.55;100568.24;1793288;80;21220;-61
2021/08/18 08:06:29;;;;;;;22.48;9.83;;;;;;;38.03;34.66;100566.11;1793424;80;21115;-61
2021/08/18 08:08:58;;;;;;;23.27;9.50;;;;;;;38.24;34.37;100553.07;1793573;80;21143;-61
2021/08/18 08:11:26;;;;;;;22.15;9.53;;;;;;;38.30;34.13;100551.23;1793484;80;21098;-61
2021/08/18 08:13:55;;;;;;;23.65;10.28;;;;;;;38.37;33.94;100542.84;1793345;80;21110;-61
2021/08/18 08:16:24;;;;;;;20.37;8.78;;;;;;;38.46;34.40;100543.23;1793375;80;21093;-61
2021/08/18 08:18:53;;;;;;;24.05;9.80;;;;;;;38.79;34.66;100543.27;1793273;80;21168;-61
2021/08/18 08:21:21;;;;;;;23.75;12.37;;;;;;;38.93;34.35;100540.14;1794201;80;21089;-61
2021/08/18 08:23:50;;;;;;;19.95;9.55;;;;;;;39.17;32.44;100529.77;1801009;80;21140;-61
2021/08/18 08:26:19;;;;;;;19.85;9.65;;;;;;;39.17;31.96;100522.88;1800930;79;21629;-61
2021/08/18 08:28:48;;;;;;;20.35;9.90;;;;;;;39.39;31.33;100525.64;1800914;80;21097;-61
2021/08/18 08:31:18;;;;;;;19.20;8.68;;;;;;;39.49;30.94;100525.80;1800790;80;21041;-61
2021/08/18 08:33:46;;;;;;;21.35;9.13;;;;;;;39.65;31.08;100529.55;1800889;80;21516;-61
2021/08/18 08:36:15;;;;;;;21.52;8.58;;;;;;;39.74;31.55;100525.78;1800904;79;21053;-61
2021/08/18 08:38:45;;;;;;;14.25;7.85;;;;;;;39.86;30.95;100520.97;1800911;80;21045;-61
2021/08/18 08:41:15;;;;;;;19.17;8.60;;;;;;;39.61;30.20;100519.31;1800695;79;21072;-61
2021/08/18 08:43:44;;;;;;;18.62;8.50;;;;;;;39.45;30.21;100523.25;1800953;80;21512;-61
2021/08/18 08:46:13;;;;;;;20.12;8.75;;;;;;;39.31;29.86;100515.09;1800977;80;21204;-61
2021/08/18 08:48:42;;;;;;;17.77;8.58;;;;;;;39.29;29.79;100513.96;1800878;80;21045;-61
2021/08/18 08:51:14;;;;;;;20.75;9.08;;;;;;;39.25;29.30;100513.34;1801133;80;21563;-61
2021/08/18 08:53:43;;;;;;;18.17;7.78;;;;;;;39.35;30.59;100514.85;1800986;80;21041;-61
2021/08/18 08:56:12;;;;;;;17.92;8.70;;;;;;;39.48;29.08;100513.11;1800883;80;21041;-62
2021/08/18 08:58:41;;;;;;;22.98;9.18;;;;;;;39.30;29.66;100502.39;1801056;80;21583;-61
2021/08/18 09:01:10;;;;;;;21.30;8.93;;;;;;;38.51;30.12;100497.94;1800949;79;21064;-61
2021/08/18 09:03:40;;;;;;;19.95;8.38;;;;;;;38.43;31.42;100504.70;1801053;80;21080;-61
2021/08/18 09:06:09;;;;;;;21.33;8.75;;;;;;;38.67;31.48;100505.37;1801106;80;21061;-61
2021/08/18 09:08:54;;;;;;;20.37;8.80;;;;;;;39.09;31.47;100506.27;1801000;80;21061;-61
2021/08/18 09:11:23;;;;;;;20.85;9.05;;;;;;;39.31;30.98;100504.89;1800969;79;21147;-61
2021/08/18 09:13:54;;;;;;;24.02;9.23;;;;;;;39.22;30.55;100505.61;1801004;80;21621;-61
2021/08/18 09:16:33;;;;;;;17.35;8.75;;;;;;;39.40;29.95;100506.66;1801090;80;21137;-61
2021/08/18 09:19:01;;;;;;;18.52;8.58;;;;;;;39.85;30.01;100505.50;1800949;80;21100;-61
2021/08/18 09:21:38;;;;;;;19.73;9.03;;;;;;;40.16;30.25;100503.06;1800950;80;21056;-61
2021/08/18 09:24:26;;;;;;;18.62;9.35;;;;;;;40.23;29.64;100505.06;1800935;80;21096;-61
2021/08/18 09:27:06;;;;;;;16.15;8.30;;;;;;;40.30;30.44;100500.68;1800966;80;21065;-61
2021/08/18 09:29:37;;;;;;;20.68;8.53;;;;;;;40.32;30.90;100500.72;1800365;79;21214;-63
2021/08/18 09:32:26;;;;;;;18.82;9.03;;;;;;;39.86;30.35;100496.16;1801115;79;21464;-61
2021/08/18 09:35:01;;;;;;;20.50;9.93;;;;;;;39.27;31.67;100496.02;1800127;79;21065;-61
2021/08/18 09:37:32;;;;;;;21.85;8.95;;;;;;;38.56;31.88;100498.88;1800972;79;21115;-61
2021/08/18 09:40:01;;;;;;;17.00;8.43;;;;;;;38.81;32.08;100499.81;1801006;80;21139;-62
2021/08/18 09:42:34;;;;;;;19.42;9.10;;;;;;;39.10;31.28;100496.91;1801088;80;21053;-61
2021/08/18 09:45:14;;;;;;;15.93;7.65;;;;;;;39.41;30.71;100499.22;1801046;80;21136;-61
2021/08/18 09:48:07;;;;;;;21.17;8.78;;;;;;;39.08;30.84;100493.58;1800980;80;21565;-61
2021/08/18 09:50:50;;;;;;;17.55;8.60;;;;;;;38.51;31.38;100491.06;1800993;80;21064;-61
2021/08/18 09:53:28;;;;;;;19.62;8.65;;;;;;;38.55;31.73;100484.00;1800997;80;21065;-61
2021/08/18 09:56:03;;;;;;;18.25;8.20;;;;;;;38.50;31.21;100479.80;1800957;80;21065;-61
2021/08/18 09:58:37;;;;;;;17.12;8.73;;;;;;;38.18;31.06;100479.00;1801001;80;21558;-61
2021/08/18 10:01:11;;;;;;;21.90;8.50;;;;;;;37.83;31.79;100476.75;1801013;80;21156;-61
2021/08/18 10:03:41;;;;;;;24.05;8.83;;;;;;;37.85;31.85;100475.13;1800536;79;21504;-61
2021/08/18 10:06:11;;;;;;;25.40;8.40;;;;;;;37.73;33.08;100472.42;1801019;80;21601;-61
2021/08/18 10:08:42;;;;;;;21.52;8.88;;;;;;;37.74;32.78;100467.75;1801071;80;21072;-61
2021/08/18 10:11:18;;;;;;;23.15;8.88;;;;;;;37.92;32.43;100472.20;1800932;80;21519;-62
2021/08/18 10:13:47;;;;;;;19.80;8.48;;;;;;;38.22;31.63;100463.69;1800952;79;21536;-61
2021/08/18 10:16:16;;;;;;;20.10;9.25;;;;;;;38.31;30.48;100462.70;1801157;80;21516;-60
2021/08/18 10:18:46;;;;;;;21.07;10.18;;;;;;;38.26;30.46;100463.47;1800991;79;21582;-60
2021/08/18 10:21:18;;;;;;;17.77;8.63;;;;;;;38.15;31.32;100468.52;1800982;80;21065;-61
2021/08/18 10:23:51;;;;;;;17.13;8.20;;;;;;;38.02;31.75;100464.16;1797488;80;21175;-61
2021/08/18 10:26:38;;;;;;;21.07;9.00;;;;;;;37.91;32.66;100462.31;1793427;80;21037;-61
2021/08/18 10:29:19;;;;;;;21.07;9.53;;;;;;;37.86;32.96;100460.30;1793429;80;21061;-61
2021/08/18 10:31:51;;;;;;;19.00;8.53;;;;;;;37.73;33.63;100463.36;1793374;80;21517;-61
2021/08/18 10:34:39;;;;;;;17.80;8.75;;;;;;;37.77;33.95;100461.78;1793447;80;21065;-61
2021/08/18 10:37:17;;;;;;;22.02;10.30;;;;;;;37.66;34.60;100464.88;1793432;80;21061;-61
2021/08/18 10:39:51;;;;;;;23.65;10.18;;;;;;;37.64;34.77;100458.25;1793395;80;21388;-61
2021/08/18 10:42:47;;;;;;;20.00;9.30;;;;;;;37.74;35.34;100462.27;1793513;80;21159;-60
2021/08/18 10:45:28;;;;;;;24.92;10.13;;;;;;;37.56;34.70;100455.88;1792366;80;21089;-60
2021/08/18 10:48:03;;;;;;;20.08;9.20;;;;;;;37.51;35.69;100455.78;1793523;80;21057;-60
2021/08/18 10:50:30;;;;;;;21.07;9.50;;;;;;;37.42;35.41;100454.51;1792730;80;21030;-60
2021/08/18 10:52:58;;;;;;;26.62;9.25;;;;;;;37.35;35.51;100454.67;1790988;80;21094;-61
2021/08/18 10:55:30;;;;;;;21.97;9.35;;;;;;;37.31;35.03;100443.03;1793369;80;21188;-60
2021/08/18 10:58:05;;;;;;;23.50;9.70;;;;;;;37.12;35.74;100447.84;1793537;80;21090;-60
2021/08/18 11:00:41;;;;;;;24.00;9.55;;;;;;;36.96;35.58;100443.39;1793400;80;21071;-60
2021/08/18 11:03:19;;;;;;;21.42;10.18;;;;;;;36.94;36.79;100441.44;1793407;80;21615;-60
2021/08/18 11:05:53;;;;;;;21.73;9.88;;;;;;;37.05;36.86;100441.11;1793165;80;21211;-60
2021/08/18 11:08:30;;;;;;;22.82;9.80;;;;;;;37.03;36.49;100437.78;1793468;80;21065;-60
2021/08/18 11:11:01;;;;;;;21.85;10.13;;;;;;;36.84;36.68;100437.13;1792651;80;21093;-60
2021/08/18 11:13:52;;;;;;;20.72;10.53;;;;;;;36.64;36.97;100434.73;1793523;80;21062;-60
2021/08/18 11:16:24;;;;;;;20.20;8.95;;;;;;;36.47;36.64;100432.70;1793416;80;21069;-60
2021/08/18 11:18:55;;;;;;;16.87;7.90;;;;;;;36.09;36.78;100435.88;1793542;80;21179;-60
2021/08/18 11:21:28;;;;;;;19.20;9.00;;;;;;;35.76;36.92;100434.49;1793381;80;21132;-60
2021/08/18 11:24:05;;;;;;;20.85;8.30;;;;;;;35.54;37.22;100432.78;1794949;80;21596;-60
2021/08/18 11:26:39;;;;;;;18.77;8.13;;;;;;;35.53;37.08;100434.69;1801009;80;21128;-60
2021/08/18 11:29:10;;;;;;;19.12;8.35;;;;;;;35.57;36.91;100426.85;1801019;80;21127;-60